createdAt,value
2023-02-21T00:03:53.151Z,81.60
2023-02-21T00:08:16.991Z,81.70
2023-02-21T00:12:40.897Z,81.60
2023-02-21T00:17:05.860Z,81.70
2023-02-21T00:21:30.295Z,81.90
2023-02-21T00:25:54.574Z,81.80
2023-02-21T00:30:18.531Z,81.90
2023-02-21T00:34:42.352Z,81.90
2023-02-21T00:39:06.268Z,81.80
2023-02-21T00:43:30.220Z,82.00
2023-02-21T00:47:54.313Z,81.70
2023-02-21T00:52:18.598Z,81.20
2023-02-21T00:56:42.605Z,80.70
2023-02-21T01:01:06.685Z,80.80
2023-02-21T01:05:30.500Z,80.60
2023-02-21T01:09:54.347Z,80.60
2023-02-21T01:14:18.594Z,80.60
2023-02-21T01:18:42.566Z,80.60
2023-02-21T01:23:07.047Z,80.70
2023-02-21T01:27:30.989Z,81.60
2023-02-21T01:31:54.818Z,80.40
2023-02-21T01:36:18.774Z,79.70
2023-02-21T01:40:42.588Z,77.50
2023-02-21T01:45:08.624Z,76.70
2023-02-21T01:49:36.812Z,75.60
2023-02-21T01:54:01.778Z,74.30
2023-02-21T01:58:25.695Z,74.40
2023-02-21T02:03:02.108Z,74.00
2023-02-21T02:07:26.685Z,73.10
2023-02-21T02:12:25.369Z,74.30
2023-02-21T02:16:45.894Z,73.10
2023-02-21T02:21:13.466Z,73.30
2023-02-21T02:26:07.047Z,73.10
2023-02-21T02:31:00.230Z,73.30
2023-02-21T02:35:10.118Z,73.60
2023-02-21T02:39:32.437Z,74.00
2023-02-21T02:44:07.121Z,74.50
2023-02-21T02:48:23.759Z,74.30
2023-02-21T02:52:29.383Z,74.40
2023-02-21T02:56:36.930Z,75.20
2023-02-21T03:00:48.794Z,74.80
2023-02-21T03:05:32.003Z,75.20
2023-02-21T03:09:54.660Z,75.20
2023-02-21T03:14:18.896Z,75.30
2023-02-21T03:18:42.843Z,75.40
2023-02-21T03:22:50.157Z,75.60
2023-02-21T03:27:05.235Z,75.50
2023-02-21T03:31:13.577Z,75.50
2023-02-21T03:35:20.671Z,75.30
2023-02-21T03:39:26.230Z,75.50
2023-02-21T03:43:31.805Z,74.80
2023-02-21T03:47:37.404Z,74.60
2023-02-21T03:51:43.022Z,74.40
2023-02-21T03:55:48.445Z,74.40
2023-02-21T03:59:53.955Z,74.20
2023-02-21T04:03:59.592Z,74.30
2023-02-21T04:08:05.868Z,74.30
2023-02-21T04:12:11.617Z,74.30
2023-02-21T04:16:17.496Z,74.20
2023-02-21T04:20:23.032Z,74.20
2023-02-21T04:24:28.974Z,74.30
2023-02-21T04:28:34.463Z,74.20
2023-02-21T04:32:39.994Z,74.10
2023-02-21T04:36:45.967Z,74.10
2023-02-21T04:40:51.461Z,74.00
2023-02-21T04:45:00.389Z,73.80
2023-02-21T04:49:06.326Z,73.80
2023-02-21T04:53:12.159Z,73.70
2023-02-21T04:57:17.961Z,73.60
2023-02-21T05:01:28.007Z,73.70
2023-02-21T05:05:33.550Z,73.60
2023-02-21T05:09:39.042Z,73.60
2023-02-21T05:13:45.757Z,73.50
2023-02-21T05:17:52.525Z,73.60
2023-02-21T05:22:01.727Z,73.50
2023-02-21T05:26:13.466Z,73.20
2023-02-21T05:30:23.883Z,73.20
2023-02-21T05:34:29.539Z,73.50
2023-02-21T05:38:46.462Z,73.40
2023-02-21T05:42:51.916Z,73.20
2023-02-21T05:46:57.405Z,73.30
2023-02-21T05:51:02.857Z,73.40
2023-02-21T05:55:08.417Z,73.20
2023-02-21T05:59:15.279Z,73.30
2023-02-21T06:03:20.813Z,73.50
2023-02-21T06:07:26.284Z,73.20
2023-02-21T06:11:34.586Z,72.60
2023-02-21T06:15:40.146Z,72.90
2023-02-21T06:19:45.746Z,73.20
2023-02-21T06:23:51.626Z,73.20
2023-02-21T06:27:57.189Z,73.20
2023-02-21T06:32:02.823Z,73.30
2023-02-21T06:36:13.974Z,73.90
2023-02-21T06:40:19.607Z,73.20
2023-02-21T06:44:25.166Z,73.40
2023-02-21T06:48:31.171Z,73.40
2023-02-21T06:52:36.654Z,74.00
2023-02-21T06:56:42.166Z,73.50
2023-02-21T07:00:47.661Z,73.40
2023-02-21T07:04:53.182Z,73.30
2023-02-21T07:08:58.678Z,73.40
2023-02-21T07:13:04.241Z,73.90
2023-02-21T07:17:09.691Z,73.20
2023-02-21T07:21:16.805Z,73.20
2023-02-21T07:25:23.524Z,73.10
2023-02-21T07:29:29.123Z,73.00
2023-02-21T07:33:34.657Z,73.00
2023-02-21T07:37:40.157Z,72.70
2023-02-21T07:41:45.694Z,72.80
2023-02-21T07:45:51.192Z,72.60
2023-02-21T07:49:57.375Z,72.50
2023-02-21T07:54:02.835Z,72.20
2023-02-21T07:58:08.567Z,72.40
2023-02-21T08:02:15.148Z,72.20
2023-02-21T08:06:20.712Z,72.20
2023-02-21T08:10:28.316Z,72.20
2023-02-21T08:14:33.957Z,72.10
2023-02-21T08:18:39.502Z,72.00
2023-02-21T08:22:45.343Z,72.10
2023-02-21T08:26:50.888Z,71.80
2023-02-21T08:30:56.363Z,71.60
2023-02-21T08:35:03.618Z,71.60
2023-02-21T08:39:10.404Z,71.40
2023-02-21T08:43:15.900Z,71.40
2023-02-21T08:47:21.436Z,70.90
2023-02-21T08:51:28.802Z,71.10
2023-02-21T08:55:34.300Z,71.00
2023-02-21T08:59:45.092Z,71.00
2023-02-21T09:03:51.112Z,71.00
2023-02-21T09:08:01.394Z,70.60
2023-02-21T09:12:11.082Z,70.40
2023-02-21T09:16:16.643Z,70.20
2023-02-21T09:20:26.068Z,69.60
2023-02-21T09:24:31.903Z,69.40
2023-02-21T09:28:43.368Z,69.20
2023-02-21T09:32:49.661Z,69.20
2023-02-21T09:36:55.530Z,69.50
2023-02-21T09:41:05.788Z,68.20
2023-02-21T09:45:17.156Z,68.10
2023-02-21T09:49:33.335Z,68.00
2023-02-21T09:53:43.758Z,67.90
2023-02-21T09:57:49.273Z,67.40
2023-02-21T10:01:54.757Z,67.90
2023-02-21T10:06:05.423Z,67.20
2023-02-21T10:10:28.333Z,67.00
2023-02-21T10:14:52.306Z,66.10
2023-02-21T10:19:16.938Z,64.60
2023-02-21T10:23:47.991Z,63.30
2023-02-21T10:27:54.215Z,62.50
2023-02-21T10:32:04.220Z,63.50
2023-02-21T10:36:19.549Z,62.30
2023-02-21T10:40:29.669Z,61.80
2023-02-21T10:44:36.306Z,61.90
2023-02-21T10:48:44.497Z,61.70
2023-02-21T10:52:51.817Z,61.90
2023-02-21T10:56:57.434Z,61.70
2023-02-21T11:01:25.597Z,61.80
2023-02-21T11:05:32.208Z,61.60
2023-02-21T11:09:44.491Z,61.60
2023-02-21T11:13:49.983Z,61.20
2023-02-21T11:18:12.286Z,60.90
2023-02-21T11:22:38.887Z,59.00
2023-02-21T11:26:52.477Z,59.80
2023-02-21T11:31:01.122Z,59.40
2023-02-21T11:35:27.263Z,59.60
2023-02-21T11:39:34.447Z,58.70
2023-02-21T11:44:26.669Z,59.50
2023-02-21T11:49:02.082Z,58.40
2023-02-21T11:53:45.895Z,59.00
2023-02-21T11:58:11.481Z,58.30
2023-02-21T12:02:48.128Z,58.10
2023-02-21T12:07:39.574Z,58.30
2023-02-21T12:11:54.945Z,56.50
2023-02-21T12:16:18.369Z,56.80
2023-02-21T12:20:54.755Z,56.90
2023-02-21T12:25:26.276Z,56.40
2023-02-21T12:30:03.563Z,56.40
2023-02-21T12:34:50.376Z,56.00
2023-02-21T12:39:39.816Z,57.00
2023-02-21T12:44:13.618Z,55.70
2023-02-21T12:48:33.956Z,56.00
2023-02-21T12:52:49.686Z,55.70
2023-02-21T12:56:59.838Z,55.80
2023-02-21T13:01:36.863Z,56.30
2023-02-21T13:05:47.681Z,55.20
2023-02-21T13:10:20.989Z,55.80
2023-02-21T13:14:48.867Z,54.80
2023-02-21T13:19:08.111Z,55.60
2023-02-21T13:24:10.128Z,55.90
2023-02-21T13:28:25.008Z,55.80
2023-02-21T13:32:39.728Z,55.70
2023-02-21T13:36:47.591Z,55.20
2023-02-21T13:41:05.165Z,56.00
2023-02-21T13:45:24.453Z,56.10
2023-02-21T13:49:55.389Z,56.30
2023-02-21T13:54:12.675Z,54.60
2023-02-21T13:58:18.967Z,54.80
2023-02-21T14:02:32.882Z,55.80
2023-02-21T14:06:38.766Z,54.60
2023-02-21T14:10:59.659Z,54.80
2023-02-21T14:15:08.978Z,54.70
2023-02-21T14:19:38.105Z,54.90
2023-02-21T14:23:51.499Z,54.40
2023-02-21T14:27:56.969Z,54.80
2023-02-21T14:32:02.717Z,55.00
2023-02-21T14:36:09.711Z,54.80
2023-02-21T14:40:21.661Z,54.20
2023-02-21T14:44:45.249Z,53.90
2023-02-21T14:49:01.409Z,53.40
2023-02-21T14:53:17.270Z,53.80
2023-02-21T14:57:47.741Z,53.10
2023-02-21T15:02:13.808Z,51.90
2023-02-21T15:06:25.061Z,52.30
2023-02-21T15:10:33.787Z,52.50
2023-02-21T15:14:47.863Z,53.00
2023-02-21T15:19:02.141Z,53.60
2023-02-21T15:23:15.229Z,53.00
2023-02-21T15:27:20.750Z,53.40
2023-02-21T15:31:28.490Z,53.40
2023-02-21T15:35:40.040Z,53.80
2023-02-21T15:39:59.273Z,53.90
2023-02-21T15:44:37.870Z,53.80
2023-02-21T15:48:43.591Z,53.80
2023-02-21T15:52:53.598Z,54.10
2023-02-21T15:57:13.986Z,54.30
2023-02-21T16:01:22.391Z,53.60
2023-02-21T16:05:30.810Z,54.20
2023-02-21T16:09:36.867Z,54.50
2023-02-21T16:13:42.512Z,54.60
2023-02-21T16:17:58.595Z,54.60
2023-02-21T16:22:38.737Z,54.70
2023-02-21T16:27:13.085Z,54.70
2023-02-21T16:31:33.900Z,54.80
2023-02-21T16:35:39.890Z,55.10
2023-02-21T16:39:45.474Z,55.90
2023-02-21T16:43:51.571Z,55.90
2023-02-21T16:48:06.826Z,56.20
2023-02-21T16:52:16.019Z,56.10
2023-02-21T16:56:21.742Z,57.10
2023-02-21T17:00:27.864Z,56.80
2023-02-21T17:04:33.925Z,57.10
2023-02-21T17:08:39.471Z,57.20
2023-02-21T17:12:45.066Z,57.50
2023-02-21T17:16:50.560Z,57.50
2023-02-21T17:20:56.347Z,57.80
2023-02-21T17:25:02.035Z,57.90
2023-02-21T17:29:08.751Z,58.00
2023-02-21T17:33:15.259Z,58.10
2023-02-21T17:37:20.971Z,58.40
2023-02-21T17:41:27.628Z,58.60
2023-02-21T17:45:40.132Z,58.60
2023-02-21T17:49:54.541Z,58.80
2023-02-21T17:54:00.165Z,58.80
2023-02-21T17:58:09.704Z,59.00
2023-02-21T18:02:16.184Z,59.30
2023-02-21T18:06:21.898Z,59.50
2023-02-21T18:10:28.216Z,59.70
2023-02-21T18:14:33.946Z,59.60
2023-02-21T18:18:39.878Z,59.60
2023-02-21T18:22:45.748Z,59.90
2023-02-21T18:26:51.247Z,60.10
2023-02-21T18:30:57.463Z,60.20
2023-02-21T18:35:02.938Z,60.40
2023-02-21T18:39:08.401Z,60.40
2023-02-21T18:43:22.895Z,61.10
2023-02-21T18:47:28.349Z,60.60
2023-02-21T18:51:37.158Z,60.70
2023-02-21T18:55:42.783Z,60.80
2023-02-21T18:59:49.091Z,60.70
2023-02-21T19:03:54.933Z,61.00
2023-02-21T19:08:00.753Z,61.10
2023-02-21T19:12:09.807Z,61.80
2023-02-21T19:16:17.027Z,61.20
2023-02-21T19:20:22.600Z,61.30
2023-02-21T19:24:28.604Z,61.40
2023-02-21T19:28:34.277Z,61.50
2023-02-21T19:32:39.901Z,61.70
2023-02-21T19:36:45.415Z,61.80
2023-02-21T19:40:50.948Z,61.80
2023-02-21T19:44:56.556Z,61.80
2023-02-21T19:49:02.230Z,62.00
2023-02-21T19:53:07.784Z,62.00
2023-02-21T19:57:13.788Z,62.40
2023-02-21T20:01:21.319Z,62.50
2023-02-21T20:05:27.329Z,62.70
2023-02-21T20:09:32.989Z,63.00
2023-02-21T20:13:38.988Z,63.20
2023-02-21T20:17:44.548Z,63.20
2023-02-21T20:21:51.952Z,63.40
2023-02-21T20:25:57.531Z,63.50
2023-02-21T20:30:05.639Z,63.60
2023-02-21T20:34:11.469Z,63.80
2023-02-21T20:38:16.947Z,64.00
2023-02-21T20:42:24.859Z,64.30
2023-02-21T20:46:30.499Z,64.40
2023-02-21T20:50:36.000Z,64.70
2023-02-21T20:54:42.653Z,64.70
2023-02-21T20:58:48.407Z,64.80
2023-02-21T21:02:53.930Z,64.90
2023-02-21T21:07:04.221Z,65.10
2023-02-21T21:11:10.286Z,65.40
2023-02-21T21:15:17.212Z,65.50
2023-02-21T21:19:26.066Z,65.90
2023-02-21T21:23:31.637Z,66.40
2023-02-21T21:27:40.460Z,67.30
2023-02-21T21:31:51.222Z,67.30
2023-02-21T21:35:59.480Z,66.90
2023-02-21T21:40:16.034Z,67.00
2023-02-21T21:44:23.305Z,67.10
2023-02-21T21:48:28.891Z,67.30
2023-02-21T21:52:34.390Z,67.50
2023-02-21T21:56:40.871Z,67.70
2023-02-21T22:00:47.098Z,67.80
2023-02-21T22:04:53.573Z,68.00
2023-02-21T22:08:59.184Z,68.20
2023-02-21T22:13:13.545Z,68.20
2023-02-21T22:17:19.058Z,68.20
2023-02-21T22:21:24.655Z,68.40
2023-02-21T22:25:32.088Z,68.60
2023-02-21T22:29:37.674Z,69.20
2023-02-21T22:33:43.615Z,68.60
2023-02-21T22:37:56.294Z,68.80
2023-02-21T22:42:05.234Z,69.00
2023-02-21T22:46:10.784Z,69.00
2023-02-21T22:50:22.246Z,69.10
2023-02-21T22:54:31.544Z,69.20
2023-02-21T22:58:38.469Z,69.20
2023-02-21T23:02:46.512Z,69.40
2023-02-21T23:06:58.518Z,69.60
2023-02-21T23:11:04.251Z,69.70
2023-02-21T23:15:12.105Z,69.60
2023-02-21T23:19:18.162Z,69.70
2023-02-21T23:23:27.812Z,69.80
2023-02-21T23:27:33.836Z,69.80
2023-02-21T23:31:41.007Z,69.70
2023-02-21T23:35:49.799Z,70.50
2023-02-21T23:39:55.388Z,69.90
2023-02-21T23:44:01.062Z,70.00
2023-02-21T23:48:15.955Z,70.00
2023-02-21T23:52:22.739Z,70.00
2023-02-21T23:56:28.236Z,69.90
